createdAt,value
2018-12-09T00:00:24.002Z,7.20
2018-12-09T00:02:58.979Z,7.10
2018-12-09T00:05:33.742Z,7.10
2018-12-09T00:08:08.686Z,7.10
2018-12-09T00:10:42.896Z,7.00
2018-12-09T00:13:18.979Z,7.00
2018-12-09T00:15:52.888Z,7.10
2018-12-09T00:18:27.610Z,7.10
2018-12-09T00:21:02.361Z,7.10
2018-12-09T00:23:36.506Z,7.20
2018-12-09T00:26:11.265Z,7.20
2018-12-09T00:28:45.241Z,7.30
2018-12-09T00:46:38.590Z,7.70
2018-12-09T00:49:13.463Z,7.50
2018-12-09T00:54:23.240Z,7.60
2018-12-09T00:56:58.058Z,7.70
2018-12-09T01:04:43.979Z,7.90
2018-12-09T01:07:18.067Z,7.80
2018-12-09T01:09:52.363Z,7.80
2018-12-09T01:12:26.314Z,7.80
2018-12-09T01:15:02.212Z,7.90
2018-12-09T01:17:36.889Z,7.80
2018-12-09T01:20:10.991Z,7.70
2018-12-09T01:22:51.746Z,7.70
2018-12-09T01:25:26.015Z,7.70
2018-12-09T01:28:00.115Z,7.80
2018-12-09T01:30:34.118Z,7.80
2018-12-09T01:33:08.173Z,7.70
2018-12-09T01:35:42.181Z,7.70
2018-12-09T01:38:19.184Z,7.70
2018-12-09T01:40:54.322Z,7.70
2018-12-09T01:43:29.999Z,7.60
2018-12-09T01:46:04.857Z,7.60
2018-12-09T01:48:39.734Z,7.50
2018-12-09T01:51:13.958Z,7.40
2018-12-09T01:53:53.878Z,7.30
2018-12-09T01:56:28.506Z,7.20
2018-12-09T01:59:03.635Z,7.30
2018-12-09T02:01:39.999Z,7.20
2018-12-09T02:04:14.769Z,7.00
2018-12-09T02:06:49.634Z,7.00
2018-12-09T02:09:23.637Z,7.00
2018-12-09T02:11:59.910Z,7.00
2018-12-09T02:14:35.800Z,6.90
2018-12-09T02:17:10.646Z,7.00
2018-12-09T02:19:45.502Z,6.90
2018-12-09T02:22:21.421Z,6.90
2018-12-09T02:24:56.374Z,7.00
2018-12-09T02:27:30.649Z,7.00
2018-12-09T02:30:05.433Z,7.10
2018-12-09T02:32:40.617Z,7.20
2018-12-09T02:35:14.617Z,7.20
2018-12-09T02:37:49.574Z,7.20
2018-12-09T02:40:24.389Z,7.20
2018-12-09T02:42:58.406Z,7.30
2018-12-09T02:45:33.455Z,7.40
2018-12-09T02:48:07.523Z,7.30
2018-12-09T02:50:42.360Z,7.20
2018-12-09T02:53:18.261Z,7.30
2018-12-09T02:55:52.254Z,7.30
2018-12-09T02:58:26.886Z,7.40
2018-12-09T03:01:00.977Z,7.40
2018-12-09T03:03:36.227Z,7.50
2018-12-09T03:06:11.034Z,7.70
2018-12-09T03:08:45.269Z,7.60
2018-12-09T03:11:21.369Z,7.70
2018-12-09T03:13:55.603Z,7.70
2018-12-09T03:16:29.609Z,7.70
2018-12-09T03:19:03.611Z,7.80
2018-12-09T03:21:38.302Z,7.80
2018-12-09T03:26:43.326Z,7.80
2018-12-09T03:29:17.641Z,7.70
2018-12-09T03:31:53.486Z,7.70
2018-12-09T03:34:27.409Z,7.70
2018-12-09T03:37:01.404Z,7.70
2018-12-09T03:39:35.338Z,7.60
2018-12-09T03:42:09.536Z,7.60
2018-12-09T03:44:44.242Z,7.70
2018-12-09T03:47:19.129Z,7.60
2018-12-09T03:49:53.814Z,7.60
2018-12-09T03:52:28.757Z,7.50
2018-12-09T03:57:33.588Z,7.30
2018-12-09T04:00:07.602Z,7.40
2018-12-09T04:02:41.614Z,7.20
2018-12-09T04:05:16.425Z,7.20
2018-12-09T04:07:50.394Z,7.10
2018-12-09T04:10:25.022Z,7.20
2018-12-09T04:12:59.089Z,7.40
2018-12-09T04:15:34.949Z,7.40
2018-12-09T04:18:08.974Z,7.40
2018-12-09T04:20:42.987Z,7.40
2018-12-09T04:23:19.953Z,7.40
2018-12-09T04:25:53.743Z,7.40
2018-12-09T04:28:28.574Z,7.50
2018-12-09T04:31:02.762Z,7.50
2018-12-09T04:33:38.642Z,7.40
2018-12-09T04:36:13.353Z,7.40
2018-12-09T04:38:47.272Z,7.40
2018-12-09T04:41:18.077Z,7.40
2018-12-09T04:43:52.210Z,7.20
2018-12-09T04:48:57.097Z,7.10
2018-12-09T04:51:33.127Z,7.10
2018-12-09T04:54:07.058Z,7.10
2018-12-09T04:56:40.951Z,7.10
2018-12-09T04:59:16.620Z,7.20
2018-12-09T05:01:53.615Z,7.10
2018-12-09T05:04:28.453Z,7.00
2018-12-09T05:07:02.374Z,7.00
2018-12-09T05:12:12.181Z,6.70
2018-12-09T05:14:46.919Z,6.70
2018-12-09T05:17:21.678Z,6.70
2018-12-09T05:19:55.592Z,6.60
2018-12-09T05:22:29.554Z,6.70
2018-12-09T05:25:03.719Z,6.80
2018-12-09T05:27:38.508Z,6.80
2018-12-09T05:30:13.579Z,6.80
2018-12-09T05:32:50.198Z,6.80
2018-12-09T05:35:25.025Z,6.80
2018-12-09T05:37:59.137Z,6.80
2018-12-09T05:40:33.230Z,6.80
2018-12-09T05:43:10.030Z,6.80
2018-12-09T05:45:44.865Z,6.80
2018-12-09T05:48:19.694Z,6.80
2018-12-09T05:50:53.620Z,6.80
2018-12-09T05:56:02.793Z,6.70
2018-12-09T05:58:37.621Z,6.70
2018-12-09T06:01:12.545Z,6.60
2018-12-09T06:03:47.438Z,6.70
2018-12-09T06:06:21.473Z,6.70
2018-12-09T06:08:55.382Z,6.80
2018-12-09T06:11:26.298Z,6.70
2018-12-09T06:14:00.320Z,6.90
2018-12-09T06:16:34.241Z,6.90
2018-12-09T06:19:09.158Z,6.90
2018-12-09T06:21:44.101Z,6.80
2018-12-09T06:24:18.834Z,6.90
2018-12-09T06:26:54.130Z,7.00
2018-12-09T06:29:28.837Z,6.90
2018-12-09T06:32:03.002Z,7.00
2018-12-09T06:37:12.087Z,6.90
2018-12-09T06:39:46.734Z,6.90
2018-12-09T06:42:17.494Z,6.90
2018-12-09T06:44:51.501Z,6.80
2018-12-09T06:47:25.575Z,6.80
2018-12-09T06:49:59.576Z,6.70
2018-12-09T06:52:33.734Z,6.70
2018-12-09T06:55:08.374Z,6.80
2018-12-09T06:57:43.198Z,6.80
2018-12-09T07:00:18.142Z,6.90
2018-12-09T07:02:49.883Z,6.90
2018-12-09T07:05:24.737Z,6.90
2018-12-09T07:07:59.589Z,6.90
2018-12-09T07:10:30.337Z,6.80
2018-12-09T07:13:07.561Z,6.80
2018-12-09T07:15:42.270Z,6.80
2018-12-09T07:20:50.954Z,6.90
2018-12-09T07:23:25.265Z,6.80
2018-12-09T07:25:59.201Z,6.70
2018-12-09T07:28:33.211Z,6.70
2018-12-09T07:31:07.419Z,6.70
2018-12-09T07:33:43.329Z,6.70
2018-12-09T07:36:17.255Z,6.80
2018-12-09T07:41:27.406Z,6.90
2018-12-09T07:44:01.519Z,6.90
2018-12-09T07:46:36.321Z,6.90
2018-12-09T07:49:10.335Z,7.00
2018-12-09T07:51:44.361Z,7.10
2018-12-09T07:54:18.482Z,7.10
2018-12-09T07:56:52.381Z,7.10
2018-12-09T07:59:26.331Z,7.10
2018-12-09T08:02:00.302Z,7.10
2018-12-09T08:04:35.162Z,7.10
2018-12-09T08:07:09.254Z,7.10
2018-12-09T08:09:43.170Z,7.10
2018-12-09T08:12:19.353Z,7.20
2018-12-09T08:14:53.427Z,7.20
2018-12-09T08:17:28.230Z,7.30
2018-12-09T08:20:02.145Z,7.30
2018-12-09T08:22:37.097Z,7.30
2018-12-09T08:25:11.909Z,7.30
2018-12-09T08:27:45.844Z,7.40
2018-12-09T08:37:53.490Z,7.40
2018-12-09T08:40:28.485Z,7.30
2018-12-09T08:43:02.429Z,7.20
2018-12-09T08:45:37.266Z,7.10
2018-12-09T08:48:11.263Z,7.10
2018-12-09T08:50:45.290Z,7.00
2018-12-09T08:53:16.150Z,6.90
2018-12-09T08:55:50.070Z,6.90
2018-12-09T08:58:23.984Z,7.00
2018-12-09T09:00:58.013Z,6.90
2018-12-09T09:03:33.078Z,7.00
2018-12-09T09:06:07.845Z,7.10
2018-12-09T09:08:41.869Z,7.10
2018-12-09T09:11:15.878Z,7.00
2018-12-09T09:13:49.986Z,6.90
2018-12-09T09:34:23.332Z,7.10
2018-12-09T09:36:57.467Z,7.30
2018-12-09T09:39:31.472Z,7.30
2018-12-09T09:42:05.594Z,7.30
2018-12-09T09:44:41.081Z,7.30
2018-12-09T09:47:15.742Z,7.40
2018-12-09T09:49:49.802Z,7.40
2018-12-09T09:52:25.734Z,7.50
2018-12-09T09:54:59.921Z,7.50
2018-12-09T09:57:33.862Z,7.60
2018-12-09T10:00:08.681Z,7.60
2018-12-09T10:02:43.968Z,7.70
2018-12-09T10:05:17.993Z,7.80
2018-12-09T10:07:52.117Z,7.80
2018-12-09T10:10:26.841Z,8.00
2018-12-09T10:13:01.090Z,8.00
2018-12-09T10:15:36.006Z,8.10
2018-12-09T10:18:09.930Z,8.20
2018-12-09T10:20:44.142Z,8.10
2018-12-09T10:23:20.322Z,8.10
2018-12-09T10:25:54.353Z,8.10
2018-12-09T10:28:28.298Z,8.10
2018-12-09T10:30:59.121Z,8.10
2018-12-09T10:33:33.173Z,8.20
2018-12-09T10:36:07.945Z,8.20
2018-12-09T10:38:42.565Z,8.10
2018-12-09T10:41:17.277Z,8.10
2018-12-09T10:43:51.502Z,8.20
2018-12-09T10:46:25.558Z,8.20
2018-12-09T10:48:59.785Z,8.10
2018-12-09T10:51:33.795Z,8.20
2018-12-09T10:54:07.969Z,8.10
2018-12-09T10:56:42.217Z,8.00
2018-12-09T10:59:16.141Z,7.90
2018-12-09T11:01:52.496Z,7.90
2018-12-09T11:04:27.032Z,7.90
2018-12-09T11:07:00.969Z,7.90
2018-12-09T11:09:35.202Z,7.90
2018-12-09T11:12:09.210Z,7.90
2018-12-09T11:14:43.998Z,7.80
2018-12-09T11:17:18.870Z,7.80
2018-12-09T11:19:52.793Z,7.80
2018-12-09T11:22:26.836Z,7.80
2018-12-09T11:25:00.749Z,7.80
2018-12-09T11:27:34.666Z,7.80
2018-12-09T11:30:08.640Z,7.80
2018-12-09T11:32:44.515Z,7.80
2018-12-09T11:35:19.242Z,7.80
2018-12-09T11:37:54.057Z,7.90
2018-12-09T11:40:28.013Z,7.90
2018-12-09T11:43:02.913Z,7.90
2018-12-09T11:45:33.522Z,7.90
2018-12-09T11:48:07.658Z,7.90
2018-12-09T11:50:41.595Z,8.00
2018-12-09T11:53:15.781Z,8.00
2018-12-09T11:55:49.729Z,8.00
2018-12-09T11:58:24.530Z,8.00
2018-12-09T12:00:59.362Z,7.90
2018-12-09T12:03:34.282Z,7.80
2018-12-09T12:06:09.130Z,7.80
2018-12-09T12:08:43.250Z,7.80
2018-12-09T12:11:17.177Z,7.80
2018-12-09T12:13:51.990Z,7.70
2018-12-09T12:16:26.009Z,7.70
2018-12-09T12:19:00.009Z,7.70
2018-12-09T12:21:35.236Z,7.70
2018-12-09T12:26:43.849Z,7.60
2018-12-09T12:29:14.668Z,7.60
2018-12-09T12:31:51.674Z,7.60
2018-12-09T12:34:25.822Z,7.60
2018-12-09T12:37:00.038Z,7.60
2018-12-09T12:39:34.350Z,7.60
2018-12-09T12:42:08.534Z,7.60
2018-12-09T12:44:42.622Z,7.60
2018-12-09T12:47:17.485Z,7.60
2018-12-09T12:49:51.752Z,7.50
2018-12-09T12:52:26.563Z,7.50
2018-12-09T12:55:00.482Z,7.40
2018-12-09T12:57:34.700Z,7.40
2018-12-09T13:00:11.489Z,7.40
2018-12-09T13:02:46.350Z,7.30
2018-12-09T13:05:17.162Z,7.30
2018-12-09T13:07:52.044Z,7.30
2018-12-09T13:10:26.837Z,7.20
2018-12-09T13:13:00.861Z,7.30
2018-12-09T13:15:34.759Z,7.30
2018-12-09T13:18:09.390Z,7.20
2018-12-09T13:20:43.295Z,7.10
2018-12-09T13:23:18.446Z,7.00
2018-12-09T13:36:08.522Z,7.20
2018-12-09T13:38:42.462Z,7.10
2018-12-09T13:41:13.288Z,7.00
2018-12-09T13:43:47.347Z,6.90
2018-12-09T13:46:22.510Z,6.80
2018-12-09T13:48:56.436Z,6.80
2018-12-09T13:51:31.593Z,6.80
2018-12-09T13:54:06.453Z,6.80
2018-12-09T13:56:41.153Z,6.80
2018-12-09T13:59:15.292Z,6.80
2018-12-09T14:01:50.017Z,6.80
2018-12-09T14:04:23.973Z,6.80
2018-12-09T14:06:58.042Z,6.80
2018-12-09T14:09:32.177Z,6.70
2018-12-09T14:14:37.065Z,6.60
2018-12-09T14:17:11.181Z,6.60
2018-12-09T14:19:46.105Z,6.50
2018-12-09T14:22:20.155Z,6.50
2018-12-09T14:24:54.318Z,6.50
2018-12-09T14:27:28.795Z,6.50
2018-12-09T14:30:03.467Z,6.40
2018-12-09T14:32:37.619Z,6.40
2018-12-09T14:35:11.611Z,6.40
2018-12-09T14:37:45.690Z,6.40
2018-12-09T14:40:20.584Z,6.40
2018-12-09T14:42:56.693Z,6.50
2018-12-09T14:45:30.798Z,6.40
2018-12-09T14:48:05.010Z,6.40
2018-12-09T14:50:39.125Z,6.30
2018-12-09T15:03:16.909Z,6.10
2018-12-09T15:05:50.871Z,6.10
2018-12-09T15:08:25.758Z,6.00
2018-12-09T15:11:00.623Z,6.10
2018-12-09T15:13:35.423Z,6.10
2018-12-09T15:16:09.418Z,6.10
2018-12-09T15:18:44.265Z,6.10
2018-12-09T15:21:18.374Z,6.10
2018-12-09T15:23:52.493Z,6.10
2018-12-09T15:26:26.826Z,6.20
2018-12-09T15:29:01.118Z,6.20
2018-12-09T15:31:35.111Z,6.20
2018-12-09T15:34:09.324Z,6.20
2018-12-09T15:36:44.195Z,6.20
2018-12-09T15:39:18.490Z,6.20
2018-12-09T15:41:52.717Z,6.20
2018-12-09T15:44:26.666Z,6.20
2018-12-09T15:47:00.703Z,6.20
2018-12-09T15:49:35.498Z,6.20
2018-12-09T15:52:11.682Z,6.10
2018-12-09T15:54:46.190Z,6.10
2018-12-09T15:57:20.395Z,6.00
2018-12-09T15:59:55.161Z,5.90
2018-12-09T16:07:35.358Z,5.80
2018-12-09T16:10:09.309Z,5.70
2018-12-09T16:20:17.925Z,5.40
2018-12-09T16:30:32.298Z,6.50
2018-12-09T16:33:08.218Z,5.50
2018-12-09T16:35:42.191Z,5.60
2018-12-09T16:38:16.160Z,5.60
2018-12-09T16:40:50.138Z,5.60
2018-12-09T16:43:24.306Z,5.70
2018-12-09T16:45:59.026Z,5.60
2018-12-09T16:48:33.937Z,5.60
2018-12-09T16:51:08.108Z,5.60
2018-12-09T16:53:43.274Z,5.60
2018-12-09T16:56:18.070Z,5.60
2018-12-09T16:58:52.945Z,5.60
2018-12-09T17:01:26.998Z,5.60
2018-12-09T17:04:01.100Z,5.40
2018-12-09T17:06:35.118Z,5.60
2018-12-09T17:09:10.950Z,5.60
2018-12-09T17:11:47.919Z,5.50
2018-12-09T17:14:21.950Z,5.50
2018-12-09T17:16:56.050Z,5.60
2018-12-09T17:19:30.965Z,5.50
2018-12-09T17:22:06.310Z,5.50
2018-12-09T17:24:41.033Z,5.60
2018-12-09T17:27:15.040Z,5.60
2018-12-09T17:29:49.401Z,5.60
2018-12-09T17:32:24.602Z,5.60
2018-12-09T17:34:58.534Z,5.60
2018-12-09T17:37:32.438Z,5.60
2018-12-09T17:40:06.608Z,5.60
2018-12-09T17:42:42.909Z,5.60
2018-12-09T17:45:17.373Z,5.50
2018-12-09T17:47:52.097Z,5.50
2018-12-09T17:50:26.924Z,5.50
2018-12-09T17:53:00.873Z,5.60
2018-12-09T17:55:35.486Z,5.50
2018-12-09T17:58:10.289Z,5.60
2018-12-09T18:00:45.117Z,5.60
2018-12-09T18:03:19.073Z,5.60
2018-12-09T18:05:53.897Z,5.60
2018-12-09T18:08:27.818Z,5.60
2018-12-09T18:11:02.658Z,5.60
2018-12-09T18:13:36.789Z,5.60
2018-12-09T18:16:11.658Z,5.60
2018-12-09T18:18:45.783Z,5.50
2018-12-09T18:21:20.031Z,5.50
2018-12-09T18:23:54.004Z,5.40
2018-12-09T18:29:02.743Z,5.30
2018-12-09T18:39:18.346Z,5.10
2018-12-09T18:41:54.580Z,5.00
2018-12-09T18:44:25.324Z,5.10
2018-12-09T18:47:00.169Z,5.20
2018-12-09T18:49:34.520Z,5.10
2018-12-09T18:52:10.565Z,5.10
2018-12-09T18:57:19.339Z,5.10
2018-12-09T18:59:53.254Z,5.00
2018-12-09T19:02:27.259Z,5.00
2018-12-09T19:05:01.259Z,5.10
2018-12-09T19:07:35.337Z,5.10
2018-12-09T19:10:09.245Z,5.20
2018-12-09T19:12:45.242Z,5.30
2018-12-09T19:15:20.105Z,5.30
2018-12-09T19:17:50.945Z,5.30
2018-12-09T19:20:24.957Z,5.20
2018-12-09T19:22:55.919Z,5.20
2018-12-09T19:25:30.621Z,5.20
2018-12-09T19:28:04.754Z,5.20
2018-12-09T19:30:38.549Z,5.20
2018-12-09T19:33:13.858Z,5.20
2018-12-09T19:35:47.879Z,5.20
2018-12-09T19:38:22.081Z,5.20
2018-12-09T19:40:56.089Z,5.20
2018-12-09T19:43:30.194Z,5.20
2018-12-09T19:46:05.033Z,5.20
2018-12-09T19:48:39.014Z,5.30
2018-12-09T19:51:13.039Z,5.40
2018-12-09T19:53:47.762Z,5.40
2018-12-09T19:56:21.834Z,5.40
2018-12-09T19:58:56.477Z,5.40
2018-12-09T20:01:31.329Z,5.40
2018-12-09T20:04:05.290Z,5.40
2018-12-09T20:06:35.210Z,5.40
2018-12-09T20:09:09.158Z,5.40
2018-12-09T20:11:45.018Z,5.40
2018-12-09T20:14:18.938Z,5.50
2018-12-09T20:16:53.056Z,5.40
2018-12-09T20:19:27.057Z,5.50
2018-12-09T20:22:03.174Z,5.30
2018-12-09T20:24:37.098Z,5.30
2018-12-09T20:27:11.320Z,5.20
2018-12-09T20:29:45.370Z,5.20
2018-12-09T20:37:22.482Z,5.20
2018-12-09T20:39:58.668Z,5.30
2018-12-09T20:42:34.570Z,5.20
2018-12-09T20:45:06.822Z,5.20
2018-12-09T20:47:41.437Z,5.30
2018-12-09T20:50:15.371Z,5.30
2018-12-09T20:52:51.846Z,5.30
2018-12-09T20:55:25.773Z,5.30
2018-12-09T20:57:59.782Z,5.30
2018-12-09T21:00:33.805Z,5.30
2018-12-09T21:03:08.829Z,5.40
2018-12-09T21:05:42.888Z,5.40
2018-12-09T21:08:17.698Z,5.40
2018-12-09T21:10:51.630Z,5.40
2018-12-09T21:13:27.726Z,5.40
2018-12-09T21:16:01.639Z,5.50
2018-12-09T21:18:36.465Z,5.40
2018-12-09T21:21:08.300Z,5.40
2018-12-09T21:23:43.257Z,5.50
2018-12-09T21:26:17.401Z,5.40
2018-12-09T21:28:52.205Z,5.40
2018-12-09T21:31:26.400Z,5.40
2018-12-09T21:34:01.137Z,5.40
2018-12-09T21:36:36.033Z,5.50
2018-12-09T21:39:10.245Z,5.50
2018-12-09T21:41:44.293Z,5.40
2018-12-09T21:44:18.242Z,5.40
2018-12-09T21:46:52.158Z,5.30
2018-12-09T21:49:26.270Z,5.30
2018-12-09T21:52:02.498Z,5.30
2018-12-09T21:54:37.312Z,5.20
2018-12-09T21:57:11.438Z,5.20
2018-12-09T21:59:45.441Z,5.20
2018-12-09T22:02:21.493Z,5.20
2018-12-09T22:04:56.309Z,5.40
2018-12-09T22:07:30.262Z,5.30
2018-12-09T22:10:05.045Z,5.30
2018-12-09T22:12:41.425Z,5.30
2018-12-09T22:15:15.330Z,5.30
2018-12-09T22:17:49.970Z,5.30
2018-12-09T22:20:23.974Z,5.30
2018-12-09T22:22:58.190Z,5.40
2018-12-09T22:25:32.105Z,5.40
2018-12-09T22:28:02.431Z,5.40
2018-12-09T22:30:37.258Z,5.40
2018-12-09T22:33:12.494Z,5.50
2018-12-09T22:35:47.131Z,5.60
2018-12-09T22:38:17.341Z,5.60
2018-12-09T22:40:48.155Z,5.60
2018-12-09T22:43:23.010Z,5.50
2018-12-09T22:45:57.013Z,5.50
2018-12-09T22:48:31.263Z,5.20
2018-12-09T22:53:36.273Z,4.90
2018-12-09T23:01:20.142Z,4.30
2018-12-09T23:08:59.699Z,4.20
2018-12-09T23:16:39.807Z,3.90
2018-12-09T23:19:13.841Z,3.80
2018-12-09T23:24:22.798Z,3.60
2018-12-09T23:26:56.793Z,3.60
2018-12-09T23:32:05.534Z,3.40
2018-12-09T23:34:39.556Z,3.60
2018-12-09T23:37:13.573Z,3.60
2018-12-09T23:39:48.377Z,3.60
2018-12-09T23:42:22.409Z,3.60
2018-12-09T23:44:56.320Z,3.60
2018-12-09T23:47:30.225Z,3.50
2018-12-09T23:50:04.481Z,3.60
2018-12-09T23:52:40.273Z,3.60
2018-12-09T23:55:15.219Z,3.50
